Current Weather

Batten Intl

Racine, Wisconsin (KRAC)

Report from: Sunday, February 5, 2023 11:53 PM CST
Current time: Monday, February 6, 2023 12:41 AM CST

Nearby weather
Weather history
Weather forecast

Temperature-3.9°C (25.0°F)
Wind chill-7.1°C (19.3°F)
Dew point-7.8°C (18.0°F)
Winds 4 kts (2.1 m/s, 4.6 mph) Northwest (320°)
Visibility8 mi. (12.9 km)
Clouds Sky clear
Altimeter30.17 in.Hg (1022 mB)
Relative humidity74 %
Density altitude-2,562 ft. (-781 m)
Sea-level pressure102.2 kPa (1022 mB, 30.19 in.Hg)
Max temp last 6 hours0.6°C (33.1°F)
Min temp last 6 hours-6.1°C (21.0°F)
Max temp last 24 hours5.0°C (41.0°F)
Min temp last 24 hours-6.1°C (21.0°F)
Remarks Fully automated report
Automated weather observing station with precipitation discriminator
Pressure rising more quickly
Flight conditions Visual Meteorological Conditions
Raw dataKRAC 060553Z AUTO 32004KT 8SM CLR M04/M08 A3017 RMK AO2 SLP224 T10391078 10006 21061 400501061 53011
An error has occurred. This application may no longer respond until reloaded. Reload 🗙